sensor_id;sensor_type;location;lat;lon;timestamp;P1;durP1;ratioP1;P2;durP2;ratioP2
11817;SDS011;5966;52.402;5.322;2023-03-19T00:02:23;1.27;;;1.20;;
11817;SDS011;5966;52.402;5.322;2023-03-19T00:04:51;1.73;;;1.30;;
11817;SDS011;5966;52.402;5.322;2023-03-19T00:07:19;1.63;;;1.30;;
11817;SDS011;5966;52.402;5.322;2023-03-19T00:09:47;1.30;;;1.20;;
11817;SDS011;5966;52.402;5.322;2023-03-19T00:12:15;1.30;;;1.20;;
11817;SDS011;5966;52.402;5.322;2023-03-19T00:14:44;1.30;;;1.20;;
11817;SDS011;5966;52.402;5.322;2023-03-19T00:17:12;1.70;;;1.17;;
11817;SDS011;5966;52.402;5.322;2023-03-19T00:19:40;1.43;;;1.13;;
11817;SDS011;5966;52.402;5.322;2023-03-19T00:22:08;2.63;;;1.50;;
11817;SDS011;5966;52.402;5.322;2023-03-19T00:24:37;3.80;;;1.37;;
11817;SDS011;5966;52.402;5.322;2023-03-19T00:27:04;2.37;;;1.37;;
11817;SDS011;5966;52.402;5.322;2023-03-19T00:29:33;2.60;;;1.50;;
11817;SDS011;5966;52.402;5.322;2023-03-19T00:32:03;1.50;;;1.40;;
11817;SDS011;5966;52.402;5.322;2023-03-19T00:34:31;2.77;;;1.30;;
11817;SDS011;5966;52.402;5.322;2023-03-19T00:36:59;1.63;;;1.40;;
11817;SDS011;5966;52.402;5.322;2023-03-19T00:39:27;1.97;;;1.40;;
11817;SDS011;5966;52.402;5.322;2023-03-19T00:41:55;1.60;;;1.50;;
11817;SDS011;5966;52.402;5.322;2023-03-19T00:44:22;1.57;;;1.47;;
11817;SDS011;5966;52.402;5.322;2023-03-19T00:46:50;1.83;;;1.73;;
11817;SDS011;5966;52.402;5.322;2023-03-19T00:49:20;2.97;;;1.60;;
11817;SDS011;5966;52.402;5.322;2023-03-19T00:51:48;2.00;;;1.80;;
11817;SDS011;5966;52.402;5.322;2023-03-19T00:54:15;1.80;;;1.70;;
11817;SDS011;5966;52.402;5.322;2023-03-19T00:56:43;2.80;;;1.73;;
11817;SDS011;5966;52.402;5.322;2023-03-19T00:59:11;2.00;;;1.80;;
11817;SDS011;5966;52.402;5.322;2023-03-19T01:01:39;1.73;;;1.50;;
11817;SDS011;5966;52.402;5.322;2023-03-19T01:04:07;1.77;;;1.67;;
11817;SDS011;5966;52.402;5.322;2023-03-19T01:06:37;1.67;;;1.47;;
11817;SDS011;5966;52.402;5.322;2023-03-19T01:09:05;2.83;;;1.70;;
11817;SDS011;5966;52.402;5.322;2023-03-19T01:11:33;1.67;;;1.50;;
11817;SDS011;5966;52.402;5.322;2023-03-19T01:14:02;2.83;;;1.80;;
11817;SDS011;5966;52.402;5.322;2023-03-19T01:16:30;2.00;;;1.80;;
11817;SDS011;5966;52.402;5.322;2023-03-19T01:18:59;2.63;;;1.87;;
11817;SDS011;5966;52.402;5.322;2023-03-19T01:21:27;2.47;;;2.27;;
11817;SDS011;5966;52.402;5.322;2023-03-19T01:23:57;4.37;;;2.00;;
11817;SDS011;5966;52.402;5.322;2023-03-19T01:26:25;4.43;;;2.43;;
11817;SDS011;5966;52.402;5.322;2023-03-19T01:28:53;2.50;;;2.07;;
11817;SDS011;5966;52.402;5.322;2023-03-19T01:31:21;5.17;;;2.70;;
11817;SDS011;5966;52.402;5.322;2023-03-19T01:33:49;3.13;;;2.50;;
11817;SDS011;5966;52.402;5.322;2023-03-19T01:36:17;3.53;;;3.00;;
11817;SDS011;5966;52.402;5.322;2023-03-19T01:38:45;3.17;;;2.97;;
11817;SDS011;5966;52.402;5.322;2023-03-19T01:41:15;3.93;;;3.20;;
11817;SDS011;5966;52.402;5.322;2023-03-19T01:43:43;3.83;;;3.43;;
11817;SDS011;5966;52.402;5.322;2023-03-19T01:46:13;3.90;;;3.50;;
11817;SDS011;5966;52.402;5.322;2023-03-19T01:48:49;4.23;;;3.93;;
11817;SDS011;5966;52.402;5.322;2023-03-19T01:51:20;4.80;;;4.40;;
11817;SDS011;5966;52.402;5.322;2023-03-19T01:53:53;5.07;;;4.67;;
11817;SDS011;5966;52.402;5.322;2023-03-19T01:56:26;5.30;;;4.70;;
11817;SDS011;5966;52.402;5.322;2023-03-19T01:58:58;6.40;;;5.80;;
11817;SDS011;5966;52.402;5.322;2023-03-19T02:01:31;7.20;;;6.50;;
11817;SDS011;5966;52.402;5.322;2023-03-19T02:04:01;9.20;;;6.77;;
11817;SDS011;5966;52.402;5.322;2023-03-19T02:06:31;7.67;;;6.83;;
11817;SDS011;5966;52.402;5.322;2023-03-19T02:09:00;7.73;;;6.93;;
11817;SDS011;5966;52.402;5.322;2023-03-19T02:11:30;9.70;;;7.07;;
11817;SDS011;5966;52.402;5.322;2023-03-19T02:13:59;7.20;;;6.57;;
11817;SDS011;5966;52.402;5.322;2023-03-19T02:16:27;7.63;;;6.93;;
11817;SDS011;5966;52.402;5.322;2023-03-19T02:18:55;7.00;;;6.30;;
11817;SDS011;5966;52.402;5.322;2023-03-19T02:21:24;7.80;;;6.80;;
11817;SDS011;5966;52.402;5.322;2023-03-19T02:23:52;7.23;;;6.53;;
11817;SDS011;5966;52.402;5.322;2023-03-19T02:26:28;7.60;;;6.80;;
11817;SDS011;5966;52.402;5.322;2023-03-19T02:28:57;6.63;;;6.03;;
11817;SDS011;5966;52.402;5.322;2023-03-19T02:31:25;6.67;;;6.07;;
11817;SDS011;5966;52.402;5.322;2023-03-19T02:33:58;6.03;;;5.43;;
11817;SDS011;5966;52.402;5.322;2023-03-19T02:36:27;6.53;;;5.90;;
11817;SDS011;5966;52.402;5.322;2023-03-19T02:39:00;6.83;;;5.50;;
11817;SDS011;5966;52.402;5.322;2023-03-19T02:41:31;6.00;;;5.37;;
11817;SDS011;5966;52.402;5.322;2023-03-19T02:44:02;6.20;;;5.60;;
11817;SDS011;5966;52.402;5.322;2023-03-19T02:46:30;6.10;;;5.50;;
11817;SDS011;5966;52.402;5.322;2023-03-19T02:48:58;6.07;;;5.20;;
11817;SDS011;5966;52.402;5.322;2023-03-19T02:51:26;6.30;;;5.20;;
11817;SDS011;5966;52.402;5.322;2023-03-19T02:53:54;7.13;;;5.63;;
11817;SDS011;5966;52.402;5.322;2023-03-19T02:56:22;6.47;;;5.53;;
11817;SDS011;5966;52.402;5.322;2023-03-19T02:58:52;6.73;;;5.60;;
11817;SDS011;5966;52.402;5.322;2023-03-19T03:01:20;6.07;;;5.57;;
11817;SDS011;5966;52.402;5.322;2023-03-19T03:03:49;8.10;;;6.37;;
11817;SDS011;5966;52.402;5.322;2023-03-19T03:06:17;6.90;;;6.20;;
11817;SDS011;5966;52.402;5.322;2023-03-19T03:08:45;7.07;;;6.37;;
11817;SDS011;5966;52.402;5.322;2023-03-19T03:11:13;7.17;;;6.10;;
11817;SDS011;5966;52.402;5.322;2023-03-19T03:13:41;7.83;;;6.87;;
11817;SDS011;5966;52.402;5.322;2023-03-19T03:16:10;7.10;;;6.40;;
11817;SDS011;5966;52.402;5.322;2023-03-19T03:18:38;7.53;;;6.73;;
11817;SDS011;5966;52.402;5.322;2023-03-19T03:21:06;7.67;;;6.87;;
11817;SDS011;5966;52.402;5.322;2023-03-19T03:23:35;7.30;;;6.60;;
11817;SDS011;5966;52.402;5.322;2023-03-19T03:26:03;7.30;;;6.50;;
11817;SDS011;5966;52.402;5.322;2023-03-19T03:28:32;7.57;;;6.87;;
11817;SDS011;5966;52.402;5.322;2023-03-19T03:31:00;7.13;;;6.40;;
11817;SDS011;5966;52.402;5.322;2023-03-19T03:33:30;7.73;;;6.87;;
11817;SDS011;5966;52.402;5.322;2023-03-19T03:35:58;8.43;;;6.87;;
11817;SDS011;5966;52.402;5.322;2023-03-19T03:38:26;8.87;;;7.23;;
11817;SDS011;5966;52.402;5.322;2023-03-19T03:40:54;7.60;;;6.80;;
11817;SDS011;5966;52.402;5.322;2023-03-19T03:43:22;8.77;;;7.20;;
11817;SDS011;5966;52.402;5.322;2023-03-19T03:45:51;8.10;;;7.30;;
11817;SDS011;5966;52.402;5.322;2023-03-19T03:48:19;8.73;;;7.67;;
11817;SDS011;5966;52.402;5.322;2023-03-19T03:50:49;9.20;;;8.30;;
11817;SDS011;5966;52.402;5.322;2023-03-19T03:53:17;8.47;;;7.53;;
11817;SDS011;5966;52.402;5.322;2023-03-19T03:55:45;9.23;;;8.23;;
11817;SDS011;5966;52.402;5.322;2023-03-19T03:58:13;10.30;;;8.57;;
11817;SDS011;5966;52.402;5.322;2023-03-19T04:00:42;10.23;;;8.97;;
11817;SDS011;5966;52.402;5.322;2023-03-19T04:03:11;9.87;;;8.87;;
11817;SDS011;5966;52.402;5.322;2023-03-19T04:05:39;9.23;;;8.17;;
11817;SDS011;5966;52.402;5.322;2023-03-19T04:08:08;9.60;;;8.17;;
11817;SDS011;5966;52.402;5.322;2023-03-19T04:10:38;10.93;;;9.17;;
11817;SDS011;5966;52.402;5.322;2023-03-19T04:13:07;10.17;;;9.07;;
11817;SDS011;5966;52.402;5.322;2023-03-19T04:15:35;11.60;;;8.43;;
11817;SDS011;5966;52.402;5.322;2023-03-19T04:18:03;11.03;;;9.57;;
11817;SDS011;5966;52.402;5.322;2023-03-19T04:20:31;12.00;;;9.67;;
11817;SDS011;5966;52.402;5.322;2023-03-19T04:23:00;11.23;;;9.47;;
11817;SDS011;5966;52.402;5.322;2023-03-19T04:25:29;11.10;;;9.90;;
11817;SDS011;5966;52.402;5.322;2023-03-19T04:27:57;11.20;;;9.70;;
11817;SDS011;5966;52.402;5.322;2023-03-19T04:30:25;12.83;;;10.63;;
11817;SDS011;5966;52.402;5.322;2023-03-19T04:32:54;12.73;;;10.73;;
11817;SDS011;5966;52.402;5.322;2023-03-19T04:35:22;12.30;;;11.00;;
11817;SDS011;5966;52.402;5.322;2023-03-19T04:37:50;12.57;;;10.90;;
11817;SDS011;5966;52.402;5.322;2023-03-19T04:40:18;12.87;;;10.40;;
11817;SDS011;5966;52.402;5.322;2023-03-19T04:42:47;12.03;;;10.73;;
11817;SDS011;5966;52.402;5.322;2023-03-19T04:45:15;12.40;;;10.70;;
11817;SDS011;5966;52.402;5.322;2023-03-19T04:47:43;12.00;;;10.70;;
11817;SDS011;5966;52.402;5.322;2023-03-19T04:50:11;12.77;;;11.47;;
11817;SDS011;5966;52.402;5.322;2023-03-19T04:52:39;11.20;;;9.93;;
11817;SDS011;5966;52.402;5.322;2023-03-19T04:55:08;12.53;;;11.23;;
11817;SDS011;5966;52.402;5.322;2023-03-19T04:57:36;11.60;;;10.40;;
11817;SDS011;5966;52.402;5.322;2023-03-19T05:00:06;12.60;;;10.50;;
11817;SDS011;5966;52.402;5.322;2023-03-19T05:02:35;11.20;;;10.10;;
11817;SDS011;5966;52.402;5.322;2023-03-19T05:05:03;10.30;;;9.17;;
11817;SDS011;5966;52.402;5.322;2023-03-19T05:07:32;10.33;;;9.20;;
11817;SDS011;5966;52.402;5.322;2023-03-19T05:10:00;10.37;;;9.20;;
11817;SDS011;5966;52.402;5.322;2023-03-19T05:12:29;11.00;;;9.83;;
11817;SDS011;5966;52.402;5.322;2023-03-19T05:14:58;10.57;;;9.43;;
11817;SDS011;5966;52.402;5.322;2023-03-19T05:17:28;10.33;;;8.53;;
11817;SDS011;5966;52.402;5.322;2023-03-19T05:19:56;10.10;;;9.10;;
11817;SDS011;5966;52.402;5.322;2023-03-19T05:22:26;11.80;;;9.20;;
11817;SDS011;5966;52.402;5.322;2023-03-19T05:24:54;9.77;;;8.77;;
11817;SDS011;5966;52.402;5.322;2023-03-19T05:27:25;10.53;;;9.43;;
11817;SDS011;5966;52.402;5.322;2023-03-19T05:29:53;9.60;;;8.60;;
11817;SDS011;5966;52.402;5.322;2023-03-19T05:32:21;10.23;;;8.87;;
11817;SDS011;5966;52.402;5.322;2023-03-19T05:34:51;9.10;;;8.00;;
11817;SDS011;5966;52.402;5.322;2023-03-19T05:37:20;10.53;;;8.63;;
11817;SDS011;5966;52.402;5.322;2023-03-19T05:39:47;10.53;;;8.83;;
11817;SDS011;5966;52.402;5.322;2023-03-19T05:42:16;10.43;;;8.80;;
11817;SDS011;5966;52.402;5.322;2023-03-19T05:44:44;9.17;;;8.27;;
11817;SDS011;5966;52.402;5.322;2023-03-19T05:47:11;11.53;;;9.33;;
11817;SDS011;5966;52.402;5.322;2023-03-19T05:49:40;12.73;;;9.20;;
11817;SDS011;5966;52.402;5.322;2023-03-19T05:52:09;10.90;;;9.80;;
11817;SDS011;5966;52.402;5.322;2023-03-19T05:54:37;10.60;;;9.13;;
11817;SDS011;5966;52.402;5.322;2023-03-19T05:57:06;10.80;;;9.63;;
11817;SDS011;5966;52.402;5.322;2023-03-19T05:59:34;11.37;;;9.07;;
11817;SDS011;5966;52.402;5.322;2023-03-19T06:02:02;10.07;;;8.83;;
11817;SDS011;5966;52.402;5.322;2023-03-19T06:04:30;10.03;;;8.93;;
11817;SDS011;5966;52.402;5.322;2023-03-19T06:06:58;10.23;;;8.80;;
11817;SDS011;5966;52.402;5.322;2023-03-19T06:09:27;11.10;;;8.63;;
11817;SDS011;5966;52.402;5.322;2023-03-19T06:11:55;9.63;;;8.50;;
11817;SDS011;5966;52.402;5.322;2023-03-19T06:14:23;9.47;;;8.43;;
11817;SDS011;5966;52.402;5.322;2023-03-19T06:16:52;8.83;;;7.87;;
11817;SDS011;5966;52.402;5.322;2023-03-19T06:19:19;8.77;;;7.57;;
11817;SDS011;5966;52.402;5.322;2023-03-19T06:21:47;9.07;;;8.17;;
11817;SDS011;5966;52.402;5.322;2023-03-19T06:24:15;9.47;;;8.03;;
11817;SDS011;5966;52.402;5.322;2023-03-19T06:26:45;8.50;;;7.70;;
11817;SDS011;5966;52.402;5.322;2023-03-19T06:29:12;8.43;;;7.57;;
11817;SDS011;5966;52.402;5.322;2023-03-19T06:31:40;9.27;;;8.13;;
11817;SDS011;5966;52.402;5.322;2023-03-19T06:34:09;9.43;;;8.40;;
11817;SDS011;5966;52.402;5.322;2023-03-19T06:36:37;9.33;;;8.37;;
11817;SDS011;5966;52.402;5.322;2023-03-19T06:39:05;9.17;;;8.27;;
11817;SDS011;5966;52.402;5.322;2023-03-19T06:41:33;9.47;;;8.57;;
11817;SDS011;5966;52.402;5.322;2023-03-19T06:44:03;10.77;;;8.73;;
11817;SDS011;5966;52.402;5.322;2023-03-19T06:46:31;9.43;;;8.50;;
11817;SDS011;5966;52.402;5.322;2023-03-19T06:48:59;11.20;;;8.70;;
11817;SDS011;5966;52.402;5.322;2023-03-19T06:51:27;9.77;;;8.57;;
11817;SDS011;5966;52.402;5.322;2023-03-19T06:53:55;9.57;;;8.60;;
11817;SDS011;5966;52.402;5.322;2023-03-19T06:56:23;9.47;;;8.57;;
11817;SDS011;5966;52.402;5.322;2023-03-19T06:58:51;9.40;;;8.40;;
11817;SDS011;5966;52.402;5.322;2023-03-19T07:01:20;9.83;;;8.87;;
11817;SDS011;5966;52.402;5.322;2023-03-19T07:03:49;17.53;;;9.10;;
11817;SDS011;5966;52.402;5.322;2023-03-19T07:06:17;9.23;;;8.33;;
11817;SDS011;5966;52.402;5.322;2023-03-19T07:08:45;12.43;;;9.47;;
11817;SDS011;5966;52.402;5.322;2023-03-19T07:11:13;10.30;;;9.40;;
11817;SDS011;5966;52.402;5.322;2023-03-19T07:13:41;10.60;;;9.47;;
11817;SDS011;5966;52.402;5.322;2023-03-19T07:16:09;12.23;;;9.47;;
11817;SDS011;5966;52.402;5.322;2023-03-19T07:18:39;10.67;;;9.60;;
11817;SDS011;5966;52.402;5.322;2023-03-19T07:21:06;13.93;;;10.20;;
11817;SDS011;5966;52.402;5.322;2023-03-19T07:23:34;11.97;;;9.97;;
11817;SDS011;5966;52.402;5.322;2023-03-19T07:26:02;10.33;;;9.33;;
11817;SDS011;5966;52.402;5.322;2023-03-19T07:28:30;11.40;;;10.23;;
11817;SDS011;5966;52.402;5.322;2023-03-19T07:30:58;10.57;;;9.57;;
11817;SDS011;5966;52.402;5.322;2023-03-19T07:33:26;11.73;;;10.47;;
11817;SDS011;5966;52.402;5.322;2023-03-19T07:35:56;11.57;;;10.37;;
11817;SDS011;5966;52.402;5.322;2023-03-19T07:38:24;10.80;;;9.80;;
11817;SDS011;5966;52.402;5.322;2023-03-19T07:40:52;11.43;;;10.07;;
11817;SDS011;5966;52.402;5.322;2023-03-19T07:43:27;12.30;;;10.60;;
11817;SDS011;5966;52.402;5.322;2023-03-19T07:45:56;12.57;;;10.83;;
11817;SDS011;5966;52.402;5.322;2023-03-19T07:48:24;12.00;;;10.30;;
11817;SDS011;5966;52.402;5.322;2023-03-19T07:50:52;12.20;;;10.40;;
11817;SDS011;5966;52.402;5.322;2023-03-19T07:53:21;12.33;;;11.07;;
11817;SDS011;5966;52.402;5.322;2023-03-19T07:55:49;13.10;;;11.47;;
11817;SDS011;5966;52.402;5.322;2023-03-19T07:58:17;14.80;;;11.93;;
11817;SDS011;5966;52.402;5.322;2023-03-19T08:00:45;14.83;;;12.20;;
11817;SDS011;5966;52.402;5.322;2023-03-19T08:03:13;13.67;;;12.17;;
11817;SDS011;5966;52.402;5.322;2023-03-19T08:05:42;13.90;;;11.80;;
11817;SDS011;5966;52.402;5.322;2023-03-19T08:08:10;14.87;;;13.27;;
11817;SDS011;5966;52.402;5.322;2023-03-19T08:10:39;15.10;;;12.60;;
11817;SDS011;5966;52.402;5.322;2023-03-19T08:13:07;14.60;;;12.90;;
11817;SDS011;5966;52.402;5.322;2023-03-19T08:15:35;15.47;;;13.50;;
11817;SDS011;5966;52.402;5.322;2023-03-19T08:18:03;15.87;;;13.07;;
11817;SDS011;5966;52.402;5.322;2023-03-19T08:20:32;16.33;;;13.17;;
11817;SDS011;5966;52.402;5.322;2023-03-19T08:23:01;17.07;;;12.93;;
11817;SDS011;5966;52.402;5.322;2023-03-19T08:25:29;19.00;;;15.17;;
11817;SDS011;5966;52.402;5.322;2023-03-19T08:27:59;26.63;;;21.53;;
11817;SDS011;5966;52.402;5.322;2023-03-19T08:30:27;22.60;;;18.50;;
11817;SDS011;5966;52.402;5.322;2023-03-19T08:32:55;26.27;;;19.80;;
11817;SDS011;5966;52.402;5.322;2023-03-19T08:35:24;29.50;;;22.20;;
11817;SDS011;5966;52.402;5.322;2023-03-19T08:37:53;31.20;;;21.43;;
11817;SDS011;5966;52.402;5.322;2023-03-19T08:40:22;34.17;;;22.37;;
11817;SDS011;5966;52.402;5.322;2023-03-19T08:42:50;34.33;;;22.60;;
11817;SDS011;5966;52.402;5.322;2023-03-19T08:45:21;61.93;;;41.80;;
11817;SDS011;5966;52.402;5.322;2023-03-19T08:47:49;38.83;;;26.43;;
11817;SDS011;5966;52.402;5.322;2023-03-19T08:50:17;47.20;;;30.60;;
11817;SDS011;5966;52.402;5.322;2023-03-19T08:52:45;37.17;;;24.40;;
11817;SDS011;5966;52.402;5.322;2023-03-19T08:55:13;38.97;;;26.43;;
11817;SDS011;5966;52.402;5.322;2023-03-19T08:57:42;40.70;;;25.77;;
11817;SDS011;5966;52.402;5.322;2023-03-19T09:00:10;37.57;;;24.43;;
11817;SDS011;5966;52.402;5.322;2023-03-19T09:02:40;45.40;;;30.47;;
11817;SDS011;5966;52.402;5.322;2023-03-19T09:05:08;43.10;;;26.50;;
11817;SDS011;5966;52.402;5.322;2023-03-19T09:07:36;39.53;;;25.00;;
11817;SDS011;5966;52.402;5.322;2023-03-19T09:10:04;37.90;;;23.40;;
11817;SDS011;5966;52.402;5.322;2023-03-19T09:12:33;39.23;;;23.80;;
11817;SDS011;5966;52.402;5.322;2023-03-19T09:15:01;40.33;;;25.30;;
11817;SDS011;5966;52.402;5.322;2023-03-19T09:17:29;33.93;;;21.30;;
11817;SDS011;5966;52.402;5.322;2023-03-19T09:19:58;33.43;;;20.90;;
11817;SDS011;5966;52.402;5.322;2023-03-19T09:22:26;34.13;;;21.90;;
11817;SDS011;5966;52.402;5.322;2023-03-19T09:24:54;40.00;;;26.77;;
11817;SDS011;5966;52.402;5.322;2023-03-19T09:27:22;33.13;;;21.17;;
11817;SDS011;5966;52.402;5.322;2023-03-19T09:29:50;28.87;;;19.77;;
11817;SDS011;5966;52.402;5.322;2023-03-19T09:32:19;32.63;;;21.70;;
11817;SDS011;5966;52.402;5.322;2023-03-19T09:34:47;30.40;;;20.07;;
11817;SDS011;5966;52.402;5.322;2023-03-19T09:37:16;24.50;;;17.80;;
11817;SDS011;5966;52.402;5.322;2023-03-19T09:39:44;32.80;;;20.77;;
11817;SDS011;5966;52.402;5.322;2023-03-19T09:42:18;32.40;;;21.27;;
11817;SDS011;5966;52.402;5.322;2023-03-19T09:44:57;29.23;;;20.07;;
11817;SDS011;5966;52.402;5.322;2023-03-19T09:47:26;32.83;;;20.67;;
11817;SDS011;5966;52.402;5.322;2023-03-19T09:49:58;28.83;;;19.10;;
11817;SDS011;5966;52.402;5.322;2023-03-19T09:52:36;27.13;;;18.43;;
11817;SDS011;5966;52.402;5.322;2023-03-19T09:55:13;26.43;;;19.53;;
11817;SDS011;5966;52.402;5.322;2023-03-19T09:57:52;30.80;;;21.37;;
11817;SDS011;5966;52.402;5.322;2023-03-19T10:00:23;31.13;;;21.77;;
11817;SDS011;5966;52.402;5.322;2023-03-19T10:02:53;27.83;;;19.93;;
11817;SDS011;5966;52.402;5.322;2023-03-19T10:05:31;32.13;;;22.07;;
11817;SDS011;5966;52.402;5.322;2023-03-19T10:08:17;30.90;;;20.57;;
11817;SDS011;5966;52.402;5.322;2023-03-19T10:11:13;31.40;;;20.87;;
11817;SDS011;5966;52.402;5.322;2023-03-19T10:13:55;31.53;;;19.90;;
11817;SDS011;5966;52.402;5.322;2023-03-19T10:16:32;29.77;;;19.47;;
11817;SDS011;5966;52.402;5.322;2023-03-19T10:19:02;29.10;;;18.17;;
11817;SDS011;5966;52.402;5.322;2023-03-19T10:21:32;33.80;;;18.83;;
11817;SDS011;5966;52.402;5.322;2023-03-19T10:24:10;28.70;;;17.33;;
11817;SDS011;5966;52.402;5.322;2023-03-19T10:26:40;29.87;;;17.77;;
11817;SDS011;5966;52.402;5.322;2023-03-19T10:29:11;27.17;;;16.70;;
11817;SDS011;5966;52.402;5.322;2023-03-19T10:31:43;28.73;;;17.50;;
11817;SDS011;5966;52.402;5.322;2023-03-19T10:34:20;27.83;;;16.97;;
11817;SDS011;5966;52.402;5.322;2023-03-19T10:36:57;27.83;;;17.20;;
11817;SDS011;5966;52.402;5.322;2023-03-19T10:39:30;29.30;;;17.63;;
11817;SDS011;5966;52.402;5.322;2023-03-19T10:42:04;28.90;;;16.33;;
11817;SDS011;5966;52.402;5.322;2023-03-19T10:44:41;25.33;;;15.30;;
11817;SDS011;5966;52.402;5.322;2023-03-19T10:47:15;26.03;;;15.80;;
11817;SDS011;5966;52.402;5.322;2023-03-19T10:49:45;27.93;;;17.33;;
11817;SDS011;5966;52.402;5.322;2023-03-19T10:52:15;27.37;;;17.40;;
11817;SDS011;5966;52.402;5.322;2023-03-19T10:54:47;26.50;;;17.10;;
11817;SDS011;5966;52.402;5.322;2023-03-19T10:57:23;25.57;;;16.47;;
11817;SDS011;5966;52.402;5.322;2023-03-19T10:59:52;25.93;;;16.43;;
11817;SDS011;5966;52.402;5.322;2023-03-19T11:02:21;23.20;;;15.53;;
11817;SDS011;5966;52.402;5.322;2023-03-19T11:05:05;22.43;;;14.43;;
11817;SDS011;5966;52.402;5.322;2023-03-19T11:07:35;23.03;;;15.50;;
11817;SDS011;5966;52.402;5.322;2023-03-19T11:10:05;27.63;;;16.13;;
11817;SDS011;5966;52.402;5.322;2023-03-19T11:12:40;22.03;;;14.77;;
11817;SDS011;5966;52.402;5.322;2023-03-19T11:15:15;23.87;;;15.57;;
11817;SDS011;5966;52.402;5.322;2023-03-19T11:17:48;24.30;;;15.37;;
11817;SDS011;5966;52.402;5.322;2023-03-19T11:20:20;23.73;;;15.60;;
11817;SDS011;5966;52.402;5.322;2023-03-19T11:22:52;25.90;;;15.73;;
11817;SDS011;5966;52.402;5.322;2023-03-19T11:25:25;24.63;;;15.77;;
11817;SDS011;5966;52.402;5.322;2023-03-19T11:27:59;23.87;;;14.57;;
11817;SDS011;5966;52.402;5.322;2023-03-19T11:30:32;19.20;;;12.83;;
11817;SDS011;5966;52.402;5.322;2023-03-19T11:36:08;20.33;;;13.57;;
11817;SDS011;5966;52.402;5.322;2023-03-19T11:38:43;22.20;;;13.60;;
11817;SDS011;5966;52.402;5.322;2023-03-19T11:41:24;20.60;;;13.97;;
11817;SDS011;5966;52.402;5.322;2023-03-19T11:44:00;24.73;;;14.33;;
11817;SDS011;5966;52.402;5.322;2023-03-19T11:46:34;25.97;;;15.00;;
11817;SDS011;5966;52.402;5.322;2023-03-19T11:49:14;23.77;;;15.00;;
11817;SDS011;5966;52.402;5.322;2023-03-19T11:51:57;21.80;;;13.70;;
11817;SDS011;5966;52.402;5.322;2023-03-19T11:54:31;22.03;;;14.37;;
11817;SDS011;5966;52.402;5.322;2023-03-19T11:57:09;22.77;;;13.93;;
11817;SDS011;5966;52.402;5.322;2023-03-19T11:59:45;22.03;;;14.00;;
11817;SDS011;5966;52.402;5.322;2023-03-19T12:02:31;19.90;;;12.93;;
11817;SDS011;5966;52.402;5.322;2023-03-19T12:05:23;20.10;;;12.87;;
11817;SDS011;5966;52.402;5.322;2023-03-19T12:08:04;18.90;;;12.43;;
11817;SDS011;5966;52.402;5.322;2023-03-19T12:10:41;23.43;;;13.77;;
11817;SDS011;5966;52.402;5.322;2023-03-19T12:13:27;19.20;;;13.00;;
11817;SDS011;5966;52.402;5.322;2023-03-19T12:16:08;21.43;;;13.37;;
11817;SDS011;5966;52.402;5.322;2023-03-19T12:18:53;21.57;;;13.90;;
11817;SDS011;5966;52.402;5.322;2023-03-19T12:21:39;21.67;;;13.90;;
11817;SDS011;5966;52.402;5.322;2023-03-19T12:24:19;22.20;;;13.73;;
11817;SDS011;5966;52.402;5.322;2023-03-19T12:26:57;20.10;;;12.87;;
11817;SDS011;5966;52.402;5.322;2023-03-19T12:29:37;19.30;;;13.27;;
11817;SDS011;5966;52.402;5.322;2023-03-19T12:32:14;19.83;;;12.07;;
11817;SDS011;5966;52.402;5.322;2023-03-19T12:34:51;24.40;;;13.50;;
11817;SDS011;5966;52.402;5.322;2023-03-19T12:37:25;20.63;;;12.87;;
11817;SDS011;5966;52.402;5.322;2023-03-19T12:40:02;22.97;;;14.33;;
11817;SDS011;5966;52.402;5.322;2023-03-19T12:42:40;21.93;;;13.30;;
11817;SDS011;5966;52.402;5.322;2023-03-19T12:45:15;21.90;;;13.77;;
11817;SDS011;5966;52.402;5.322;2023-03-19T12:47:49;22.67;;;13.70;;
11817;SDS011;5966;52.402;5.322;2023-03-19T12:50:22;22.90;;;15.33;;
11817;SDS011;5966;52.402;5.322;2023-03-19T12:52:52;22.00;;;14.97;;
11817;SDS011;5966;52.402;5.322;2023-03-19T12:55:25;28.83;;;15.73;;
11817;SDS011;5966;52.402;5.322;2023-03-19T12:58:02;23.87;;;15.13;;
11817;SDS011;5966;52.402;5.322;2023-03-19T13:00:37;24.70;;;15.53;;
11817;SDS011;5966;52.402;5.322;2023-03-19T13:03:14;25.23;;;15.53;;
11817;SDS011;5966;52.402;5.322;2023-03-19T13:05:45;25.10;;;15.93;;
11817;SDS011;5966;52.402;5.322;2023-03-19T13:08:18;26.23;;;16.63;;
11817;SDS011;5966;52.402;5.322;2023-03-19T13:10:53;27.23;;;16.70;;
11817;SDS011;5966;52.402;5.322;2023-03-19T13:13:25;27.13;;;15.67;;
11817;SDS011;5966;52.402;5.322;2023-03-19T13:16:03;27.13;;;16.10;;
11817;SDS011;5966;52.402;5.322;2023-03-19T13:18:37;27.50;;;16.27;;
11817;SDS011;5966;52.402;5.322;2023-03-19T13:21:19;25.80;;;16.53;;
11817;SDS011;5966;52.402;5.322;2023-03-19T13:23:50;26.43;;;15.53;;
11817;SDS011;5966;52.402;5.322;2023-03-19T13:26:29;27.70;;;15.97;;
11817;SDS011;5966;52.402;5.322;2023-03-19T13:29:00;28.47;;;16.80;;
11817;SDS011;5966;52.402;5.322;2023-03-19T13:31:34;24.90;;;15.63;;
11817;SDS011;5966;52.402;5.322;2023-03-19T13:34:05;23.30;;;14.20;;
11817;SDS011;5966;52.402;5.322;2023-03-19T13:36:46;26.07;;;15.90;;
11817;SDS011;5966;52.402;5.322;2023-03-19T13:39:19;27.80;;;16.50;;
11817;SDS011;5966;52.402;5.322;2023-03-19T13:44:49;28.87;;;16.37;;
11817;SDS011;5966;52.402;5.322;2023-03-19T13:56:19;26.87;;;15.70;;
11817;SDS011;5966;52.402;5.322;2023-03-19T14:01:57;26.87;;;16.77;;
11817;SDS011;5966;52.402;5.322;2023-03-19T14:04:27;31.40;;;17.97;;
11817;SDS011;5966;52.402;5.322;2023-03-19T14:06:57;29.13;;;17.10;;
11817;SDS011;5966;52.402;5.322;2023-03-19T14:09:37;28.13;;;18.00;;
11817;SDS011;5966;52.402;5.322;2023-03-19T14:12:21;28.37;;;17.83;;
11817;SDS011;5966;52.402;5.322;2023-03-19T14:14:57;30.33;;;18.40;;
11817;SDS011;5966;52.402;5.322;2023-03-19T14:17:30;30.90;;;18.50;;
11817;SDS011;5966;52.402;5.322;2023-03-19T14:20:04;33.93;;;19.47;;
11817;SDS011;5966;52.402;5.322;2023-03-19T14:23:09;27.77;;;18.93;;
11817;SDS011;5966;52.402;5.322;2023-03-19T14:28:37;32.80;;;19.90;;
11817;SDS011;5966;52.402;5.322;2023-03-19T14:31:17;27.83;;;18.43;;
11817;SDS011;5966;52.402;5.322;2023-03-19T14:33:54;32.93;;;20.07;;
11817;SDS011;5966;52.402;5.322;2023-03-19T14:36:29;28.83;;;18.87;;
11817;SDS011;5966;52.402;5.322;2023-03-19T14:38:58;28.90;;;18.37;;
11817;SDS011;5966;52.402;5.322;2023-03-19T14:41:31;28.10;;;18.73;;
11817;SDS011;5966;52.402;5.322;2023-03-19T14:44:09;29.03;;;19.33;;
11817;SDS011;5966;52.402;5.322;2023-03-19T14:47:02;29.60;;;18.67;;
11817;SDS011;5966;52.402;5.322;2023-03-19T14:49:52;31.37;;;18.53;;
11817;SDS011;5966;52.402;5.322;2023-03-19T14:52:39;32.67;;;19.43;;
11817;SDS011;5966;52.402;5.322;2023-03-19T14:55:13;31.20;;;18.00;;
11817;SDS011;5966;52.402;5.322;2023-03-19T14:57:42;27.37;;;16.50;;
11817;SDS011;5966;52.402;5.322;2023-03-19T15:00:12;27.87;;;17.33;;
11817;SDS011;5966;52.402;5.322;2023-03-19T15:02:43;25.23;;;16.43;;
11817;SDS011;5966;52.402;5.322;2023-03-19T15:05:14;25.40;;;17.27;;
11817;SDS011;5966;52.402;5.322;2023-03-19T15:07:48;25.10;;;15.90;;
11817;SDS011;5966;52.402;5.322;2023-03-19T15:10:20;23.77;;;16.20;;
11817;SDS011;5966;52.402;5.322;2023-03-19T15:12:55;26.93;;;16.63;;
11817;SDS011;5966;52.402;5.322;2023-03-19T15:15:35;24.43;;;15.50;;
11817;SDS011;5966;52.402;5.322;2023-03-19T15:18:10;24.80;;;15.93;;
11817;SDS011;5966;52.402;5.322;2023-03-19T15:20:41;23.53;;;15.40;;
11817;SDS011;5966;52.402;5.322;2023-03-19T15:23:17;23.07;;;15.73;;
11817;SDS011;5966;52.402;5.322;2023-03-19T15:25:53;22.57;;;15.03;;
11817;SDS011;5966;52.402;5.322;2023-03-19T15:28:23;23.77;;;15.77;;
11817;SDS011;5966;52.402;5.322;2023-03-19T15:30:54;25.03;;;16.27;;